createdAt,value
2018-08-16T00:02:20.972Z,96875.28
2018-08-16T00:04:48.319Z,96877.67
2018-08-16T00:07:15.646Z,96884.86
2018-08-16T00:09:42.968Z,96876.48
2018-08-16T00:12:10.316Z,96878.46
2018-08-16T00:14:37.696Z,96877.41
2018-08-16T00:17:05.732Z,96872.85
2018-08-16T00:19:33.092Z,96873.35
2018-08-16T00:22:00.437Z,96867.39
2018-08-16T00:24:28.291Z,96860.13
2018-08-16T00:26:55.772Z,96859.05
2018-08-16T00:29:23.113Z,96860.89
2018-08-16T00:31:51.151Z,96859.47
2018-08-16T00:34:18.428Z,96856.14
2018-08-16T00:36:45.868Z,96850.77
2018-08-16T00:39:13.175Z,96848.02
2018-08-16T00:41:40.451Z,96850.18
2018-08-16T00:44:07.726Z,96850.77
2018-08-16T00:46:35.038Z,96846.35
2018-08-16T00:49:02.286Z,96845.66
2018-08-16T00:51:29.923Z,96845.16
2018-08-16T00:53:57.205Z,96838.58
2018-08-16T00:56:24.435Z,96844.58
2018-08-16T00:58:51.843Z,96846.39
2018-08-16T01:01:19.253Z,96840.55
2018-08-16T01:03:46.563Z,96840.43
2018-08-16T01:06:13.803Z,96840.20
2018-08-16T01:08:41.098Z,96837.84
2018-08-16T01:11:08.492Z,96831.61
2018-08-16T01:13:35.790Z,96836.91
2018-08-16T01:16:03.085Z,96842.16
2018-08-16T01:18:30.473Z,96836.55
2018-08-16T01:20:57.838Z,96836.34
2018-08-16T01:23:25.238Z,96833.48
2018-08-16T01:25:52.608Z,96830.97
2018-08-16T01:28:19.915Z,96829.66
2018-08-16T01:30:47.274Z,96827.06
2018-08-16T01:33:14.552Z,96831.35
2018-08-16T01:35:41.925Z,96828.26
2018-08-16T01:38:09.194Z,96829.80
2018-08-16T01:40:36.484Z,96828.95
2018-08-16T01:43:03.747Z,96824.58
2018-08-16T01:45:31.077Z,96824.23
2018-08-16T01:47:58.399Z,96824.23
2018-08-16T01:50:25.746Z,96816.94
2018-08-16T01:52:53.001Z,96820.18
2018-08-16T01:55:20.360Z,96812.66
2018-08-16T01:57:48.180Z,96814.20
2018-08-16T02:00:15.592Z,96811.12
2018-08-16T02:02:42.883Z,96805.88
2018-08-16T02:05:10.363Z,96805.14
2018-08-16T02:07:37.628Z,96805.75
2018-08-16T02:10:05.895Z,96805.05
2018-08-16T02:12:33.193Z,96802.19
2018-08-16T02:15:00.496Z,96810.17
2018-08-16T02:17:27.758Z,96805.53
2018-08-16T02:19:55.028Z,96807.81
2018-08-16T02:22:22.436Z,96802.32
2018-08-16T02:24:49.704Z,96805.20
2018-08-16T02:27:16.937Z,96799.83
2018-08-16T02:29:44.162Z,96800.20
2018-08-16T02:32:11.367Z,96794.70
2018-08-16T02:34:38.657Z,96795.55
2018-08-16T02:37:06.009Z,96792.41
2018-08-16T02:39:33.263Z,96793.05
2018-08-16T02:42:00.553Z,96795.69
2018-08-16T02:44:27.964Z,96793.66
2018-08-16T02:46:55.214Z,96789.25
2018-08-16T02:49:22.493Z,96787.33
2018-08-16T02:51:49.838Z,96785.77
2018-08-16T02:54:17.165Z,96785.30
2018-08-16T02:56:44.500Z,96785.89
2018-08-16T02:59:11.703Z,96785.89
2018-08-16T03:01:40.424Z,96786.39
2018-08-16T03:04:07.767Z,96782.47
2018-08-16T03:06:35.176Z,96781.60
2018-08-16T03:09:02.569Z,96789.83
2018-08-16T03:11:29.827Z,96777.66
2018-08-16T03:13:57.087Z,96779.23
2018-08-16T03:16:24.427Z,96776.84
2018-08-16T03:18:51.711Z,96773.14
2018-08-16T03:21:19.029Z,96778.98
2018-08-16T03:23:46.253Z,96773.16
2018-08-16T03:26:13.578Z,96765.62
2018-08-16T03:28:40.965Z,96765.98
2018-08-16T03:31:08.251Z,96765.53
2018-08-16T03:33:35.622Z,96767.42
2018-08-16T03:36:02.952Z,96763.39
2018-08-16T03:38:30.281Z,96758.86
2018-08-16T03:40:57.619Z,96756.36
2018-08-16T03:43:24.944Z,96758.73
2018-08-16T03:45:52.230Z,96760.18
2018-08-16T03:48:19.485Z,96756.47
2018-08-16T03:50:46.857Z,96757.17
2018-08-16T03:53:14.114Z,96753.86
2018-08-16T03:55:41.414Z,96753.00
2018-08-16T03:58:08.732Z,96751.69
2018-08-16T04:00:36.121Z,96748.81
2018-08-16T04:03:03.387Z,96750.12
2018-08-16T04:05:30.711Z,96744.52
2018-08-16T04:07:57.966Z,96741.44
2018-08-16T04:10:25.236Z,96744.88
2018-08-16T04:12:52.443Z,96749.30
2018-08-16T04:15:19.731Z,96753.34
2018-08-16T04:17:48.741Z,96751.56
2018-08-16T04:20:16.041Z,96758.72
2018-08-16T04:22:43.315Z,96759.67
2018-08-16T04:25:10.593Z,96756.34
2018-08-16T04:27:37.861Z,96757.65
2018-08-16T04:30:05.549Z,96755.48
2018-08-16T04:32:32.790Z,96756.34
2018-08-16T04:35:00.031Z,96752.76
2018-08-16T04:37:27.294Z,96757.89
2018-08-16T04:39:54.575Z,96752.88
2018-08-16T04:42:21.905Z,96747.05
2018-08-16T04:44:49.175Z,96752.64
2018-08-16T04:47:16.476Z,96757.29
2018-08-16T04:49:43.729Z,96753.34
2018-08-16T04:52:11.020Z,96753.15
2018-08-16T04:54:38.272Z,96750.38
2018-08-16T04:57:05.558Z,96755.41
2018-08-16T04:59:32.837Z,96755.41
2018-08-16T05:02:00.091Z,96760.88
2018-08-16T05:04:27.353Z,96757.80
2018-08-16T05:06:54.742Z,96759.22
2018-08-16T05:09:22.084Z,96756.84
2018-08-16T05:11:49.357Z,96759.56
2018-08-16T05:14:16.657Z,96758.50
2018-08-16T05:16:43.956Z,96761.59
2018-08-16T05:19:12.076Z,96757.42
2018-08-16T05:21:39.484Z,96759.67
2018-08-16T05:24:06.798Z,96756.22
2018-08-16T05:26:34.097Z,96755.50
2018-08-16T05:29:01.528Z,96755.92
2018-08-16T05:31:28.937Z,96754.36
2018-08-16T05:33:56.277Z,96748.36
2018-08-16T05:36:23.723Z,96747.15
2018-08-16T05:38:51.002Z,96745.16
2018-08-16T05:41:18.446Z,96754.91
2018-08-16T05:43:45.739Z,96753.02
2018-08-16T05:46:13.123Z,96750.66
2018-08-16T05:48:40.476Z,96752.55
2018-08-16T05:51:07.735Z,96735.50
2018-08-16T05:53:35.316Z,96756.38
2018-08-16T05:56:02.620Z,96760.05
2018-08-16T05:58:29.933Z,96759.27
2018-08-16T06:00:57.278Z,96763.26
2018-08-16T06:03:24.540Z,96757.34
2018-08-16T06:05:51.939Z,96759.47
2018-08-16T06:08:19.122Z,96757.03
2018-08-16T06:10:46.522Z,96752.52
2018-08-16T06:13:13.838Z,96753.44
2018-08-16T06:15:41.081Z,96753.77
2018-08-16T06:18:08.532Z,96748.56
2018-08-16T06:20:35.770Z,96745.70
2018-08-16T06:23:03.066Z,96747.51
2018-08-16T06:25:30.373Z,96743.14
2018-08-16T06:27:57.708Z,96744.75
2018-08-16T06:30:25.044Z,96742.94
2018-08-16T06:32:52.302Z,96745.67
2018-08-16T06:35:19.718Z,96736.53
2018-08-16T06:37:47.096Z,96732.78
2018-08-16T06:40:16.052Z,96733.83
2018-08-16T06:42:43.641Z,96724.61
2018-08-16T06:45:10.942Z,96733.72
2018-08-16T06:47:38.301Z,96732.30
2018-08-16T06:50:05.735Z,96728.52
2018-08-16T06:52:33.196Z,96729.35
2018-08-16T06:55:01.125Z,96733.52
2018-08-16T06:57:28.473Z,96731.23
2018-08-16T06:59:55.803Z,96728.18
2018-08-16T07:02:23.038Z,96724.02
2018-08-16T07:04:50.402Z,96719.91
2018-08-16T07:07:17.578Z,96721.83
2018-08-16T07:09:44.899Z,96724.14
2018-08-16T07:12:12.303Z,96726.09
2018-08-16T07:14:39.463Z,96724.80
2018-08-16T07:17:06.817Z,96723.30
2018-08-16T07:19:34.072Z,96721.79
2018-08-16T07:22:01.430Z,96715.41
2018-08-16T07:24:28.727Z,96710.59
2018-08-16T07:26:56.079Z,96712.18
2018-08-16T07:29:23.362Z,96709.19
2018-08-16T07:31:50.557Z,96704.55
2018-08-16T07:34:17.841Z,96704.17
2018-08-16T07:36:45.067Z,96704.23
2018-08-16T07:39:12.504Z,96706.09
2018-08-16T07:41:39.838Z,96695.31
2018-08-16T07:44:07.423Z,96692.17
2018-08-16T07:46:34.756Z,96693.36
2018-08-16T07:49:02.338Z,96693.05
2018-08-16T07:51:29.895Z,96698.65
2018-08-16T07:53:57.194Z,96702.38
2018-08-16T07:56:24.591Z,96702.81
2018-08-16T07:58:52.246Z,96695.72
2018-08-16T08:01:19.626Z,96697.05
2018-08-16T08:03:47.058Z,96701.89
2018-08-16T08:06:15.007Z,96697.57
2018-08-16T08:08:43.174Z,96698.61
2018-08-16T08:11:10.523Z,96692.16
2018-08-16T08:13:37.910Z,96690.80
2018-08-16T08:16:05.346Z,96694.20
2018-08-16T08:18:32.742Z,96688.16
2018-08-16T08:21:00.079Z,96686.83
2018-08-16T08:23:27.443Z,96689.47
2018-08-16T08:25:54.905Z,96683.60
2018-08-16T08:28:22.338Z,96679.78
2018-08-16T08:30:50.043Z,96691.12
2018-08-16T08:33:17.529Z,96678.98
2018-08-16T08:35:55.134Z,96680.75
2018-08-16T08:38:22.575Z,96682.11
2018-08-16T08:40:49.893Z,96682.09
2018-08-16T08:43:27.691Z,96681.39
2018-08-16T08:45:55.160Z,96683.36
2018-08-16T08:48:22.523Z,96683.00
2018-08-16T08:50:49.954Z,96672.06
2018-08-16T08:53:33.787Z,96675.44
2018-08-16T08:56:12.709Z,96671.95
2018-08-16T08:58:48.583Z,96669.03
2018-08-16T09:01:16.405Z,96670.38
2018-08-16T09:03:43.957Z,96661.63
2018-08-16T09:06:11.832Z,96662.13
2018-08-16T09:08:39.234Z,96661.52
2018-08-16T09:11:18.986Z,96654.77
2018-08-16T09:14:02.258Z,96652.62
2018-08-16T09:16:34.003Z,96649.68
2018-08-16T09:19:01.671Z,96643.80
2018-08-16T09:21:29.662Z,96646.25
2018-08-16T09:23:57.147Z,96641.96
2018-08-16T09:26:30.320Z,96640.94
2018-08-16T09:28:58.117Z,96639.05
2018-08-16T09:31:37.070Z,96641.63
2018-08-16T09:34:17.012Z,96637.30
2018-08-16T09:36:44.308Z,96611.53
2018-08-16T09:39:11.694Z,96627.88
2018-08-16T09:41:39.408Z,96631.08
2018-08-16T09:44:06.973Z,96631.19
2018-08-16T09:47:02.175Z,96627.36
2018-08-16T09:49:31.915Z,96618.98
2018-08-16T09:51:59.396Z,96620.08
2018-08-16T09:54:26.712Z,96625.91
2018-08-16T09:56:54.788Z,96627.02
2018-08-16T09:59:22.027Z,96621.93
2018-08-16T10:01:49.456Z,96616.08
2018-08-16T10:04:16.878Z,96613.23
2018-08-16T10:06:44.597Z,96621.34
2018-08-16T10:09:16.858Z,96612.58
2018-08-16T10:11:44.760Z,96613.11
2018-08-16T10:14:12.042Z,96610.75
2018-08-16T10:16:39.482Z,96606.00
2018-08-16T10:19:06.890Z,96607.25
2018-08-16T10:21:34.452Z,96609.87
2018-08-16T10:24:02.349Z,96601.39
2018-08-16T10:26:29.663Z,96592.52
2018-08-16T10:28:56.986Z,96590.05
2018-08-16T10:31:24.323Z,96598.02
2018-08-16T10:33:51.882Z,96566.83
2018-08-16T10:36:19.470Z,96595.72
2018-08-16T10:38:46.990Z,96584.36
2018-08-16T10:41:14.290Z,96587.91
2018-08-16T10:43:41.646Z,96575.12
2018-08-16T10:46:08.885Z,96574.63
2018-08-16T10:48:36.219Z,96568.08
2018-08-16T10:51:03.578Z,96566.73
2018-08-16T10:53:30.938Z,96566.52
2018-08-16T10:55:59.034Z,96566.28
2018-08-16T10:58:26.263Z,96560.54
2018-08-16T11:00:53.565Z,96560.96
2018-08-16T11:03:21.798Z,96554.72
2018-08-16T11:05:49.191Z,96533.23
2018-08-16T11:08:16.732Z,96548.02
2018-08-16T11:13:11.901Z,96550.43
2018-08-16T11:15:39.190Z,96545.94
2018-08-16T11:18:06.766Z,96543.14
2018-08-16T11:20:34.063Z,96535.88
2018-08-16T11:23:01.390Z,96532.11
2018-08-16T11:25:28.732Z,96528.80
2018-08-16T11:27:56.132Z,96527.02
2018-08-16T11:30:23.446Z,96526.42
2018-08-16T11:32:50.724Z,96522.47
2018-08-16T11:35:18.182Z,96519.22
2018-08-16T11:37:45.546Z,96509.47
2018-08-16T11:40:12.850Z,96515.98
2018-08-16T11:42:40.240Z,96514.34
2018-08-16T11:45:07.762Z,96511.03
2018-08-16T11:47:35.108Z,96506.74
2018-08-16T11:50:02.518Z,96507.11
2018-08-16T11:52:29.844Z,96511.44
2018-08-16T11:54:57.175Z,96505.34
2018-08-16T11:57:24.549Z,96500.30
2018-08-16T11:59:51.910Z,96502.14
2018-08-16T12:02:19.205Z,96501.45
2018-08-16T12:04:46.527Z,96498.65
2018-08-16T12:07:13.775Z,96491.92
2018-08-16T12:09:41.156Z,96495.37
2018-08-16T12:12:08.497Z,96489.66
2018-08-16T12:14:35.825Z,96485.90
2018-08-16T12:17:03.528Z,96485.55
2018-08-16T12:19:30.953Z,96480.61
2018-08-16T12:21:58.231Z,96484.56
2018-08-16T12:24:25.608Z,96488.59
2018-08-16T12:26:52.922Z,96485.26
2018-08-16T12:29:20.451Z,96475.40
2018-08-16T12:31:47.768Z,96480.69
2018-08-16T12:34:15.028Z,96477.38
2018-08-16T12:36:42.381Z,96475.28
2018-08-16T12:39:09.791Z,96469.03
2018-08-16T12:41:37.070Z,96474.74
2018-08-16T12:44:04.396Z,96471.77
2018-08-16T12:46:31.767Z,96473.25
2018-08-16T12:48:59.105Z,96455.59
2018-08-16T12:51:26.407Z,96465.31
2018-08-16T12:53:53.767Z,96459.53
2018-08-16T12:56:21.063Z,96459.80
2018-08-16T12:58:48.445Z,96451.89
2018-08-16T13:01:15.756Z,96451.64
2018-08-16T13:03:43.080Z,96449.42
2018-08-16T13:06:10.478Z,96445.41
2018-08-16T13:08:37.795Z,96439.92
2018-08-16T13:11:05.560Z,96437.30
2018-08-16T13:13:32.846Z,96435.42
2018-08-16T13:16:00.087Z,96430.05
2018-08-16T13:18:27.376Z,96431.44
2018-08-16T13:20:54.735Z,96433.03
2018-08-16T13:23:22.145Z,96429.57
2018-08-16T13:25:49.483Z,96423.48
2018-08-16T13:28:17.768Z,96418.47
2018-08-16T13:30:45.081Z,96418.44
2018-08-16T13:33:12.551Z,96417.11
2018-08-16T13:35:39.909Z,96406.02
2018-08-16T13:38:07.256Z,96407.74
2018-08-16T13:40:35.263Z,96407.88
2018-08-16T13:43:02.612Z,96404.41
2018-08-16T13:45:29.983Z,96401.46
2018-08-16T13:47:57.301Z,96399.02
2018-08-16T13:50:24.847Z,96397.45
2018-08-16T13:52:52.130Z,96398.07
2018-08-16T13:55:19.432Z,96393.83
2018-08-16T13:57:46.741Z,96396.87
2018-08-16T14:00:14.010Z,96393.27
2018-08-16T14:02:41.592Z,96393.03
2018-08-16T14:05:09.123Z,96387.53
2018-08-16T14:07:36.412Z,96382.20
2018-08-16T14:10:04.339Z,96383.87
2018-08-16T14:12:31.628Z,96381.88
2018-08-16T14:14:58.958Z,96383.41
2018-08-16T14:17:26.384Z,96379.44
2018-08-16T14:19:53.890Z,96368.66
2018-08-16T14:22:21.188Z,96370.42
2018-08-16T14:24:48.460Z,96377.65
2018-08-16T14:27:15.725Z,96367.50
2018-08-16T14:29:43.030Z,96365.42
2018-08-16T14:32:10.478Z,96364.51
2018-08-16T14:34:37.761Z,96358.52
2018-08-16T14:37:05.762Z,96358.45
2018-08-16T14:39:33.017Z,96355.28
2018-08-16T14:42:00.388Z,96350.34
2018-08-16T14:44:27.712Z,96352.63
2018-08-16T14:46:55.038Z,96355.22
2018-08-16T14:49:22.467Z,96347.46
2018-08-16T14:51:49.910Z,96344.88
2018-08-16T14:54:17.212Z,96348.74
2018-08-16T14:56:47.305Z,96343.58
2018-08-16T14:59:15.876Z,96342.83
2018-08-16T15:01:43.576Z,96346.37
2018-08-16T15:04:10.925Z,96348.77
2018-08-16T15:06:38.272Z,96336.87
2018-08-16T15:09:08.588Z,96338.89
2018-08-16T15:11:35.933Z,96340.51
2018-08-16T15:14:03.265Z,96338.88
2018-08-16T15:16:30.890Z,96346.17
2018-08-16T15:18:58.344Z,96341.58
2018-08-16T15:21:25.708Z,96336.17
2018-08-16T15:23:53.022Z,96335.08
2018-08-16T15:26:20.377Z,96335.59
2018-08-16T15:28:47.795Z,96329.27
2018-08-16T15:31:15.542Z,96329.77
2018-08-16T15:33:43.332Z,96328.73
2018-08-16T15:36:10.681Z,96319.13
2018-08-16T15:38:37.990Z,96321.28
2018-08-16T15:41:05.436Z,96323.66
2018-08-16T15:43:33.751Z,96318.77
2018-08-16T15:46:02.583Z,96319.77
2018-08-16T15:48:30.521Z,96311.50
2018-08-16T15:50:57.916Z,96316.92
2018-08-16T15:53:25.298Z,96315.00
2018-08-16T15:55:52.637Z,96321.49
2018-08-16T15:58:19.988Z,96321.42
2018-08-16T16:00:47.372Z,96311.33
2018-08-16T16:03:14.667Z,96310.86
2018-08-16T16:05:43.390Z,96307.34
2018-08-16T16:08:10.847Z,96306.79
2018-08-16T16:10:38.181Z,96302.50
2018-08-16T16:13:05.628Z,96297.42
2018-08-16T16:15:32.965Z,96297.03
2018-08-16T16:18:00.322Z,96302.05
2018-08-16T16:20:27.604Z,96296.64
2018-08-16T16:22:54.882Z,96286.22
2018-08-16T16:25:22.172Z,96291.59
2018-08-16T16:27:49.471Z,96291.61
2018-08-16T16:30:16.689Z,96288.31
2018-08-16T16:32:44.030Z,96291.84
2018-08-16T16:35:11.368Z,96286.00
2018-08-16T16:37:38.593Z,96286.80
2018-08-16T16:40:07.283Z,96286.04
2018-08-16T16:42:34.557Z,96286.23
2018-08-16T16:45:01.946Z,96284.51
2018-08-16T16:47:29.217Z,96289.43
2018-08-16T16:49:56.508Z,96279.31
2018-08-16T16:52:23.975Z,96276.09
2018-08-16T16:54:51.343Z,96280.33
2018-08-16T16:57:18.659Z,96271.55
2018-08-16T16:59:45.968Z,96273.50
2018-08-16T17:02:13.285Z,96277.17
2018-08-16T17:04:40.604Z,96272.59
2018-08-16T17:07:07.944Z,96275.97
2018-08-16T17:09:35.160Z,96279.67
2018-08-16T17:12:02.464Z,96261.48
2018-08-16T17:14:29.802Z,96274.32
2018-08-16T17:16:57.112Z,96273.33
2018-08-16T17:19:24.404Z,96274.39
2018-08-16T17:21:51.707Z,96275.77
2018-08-16T17:24:19.009Z,96275.88
2018-08-16T17:26:46.266Z,96276.55
2018-08-16T17:29:13.652Z,96275.63
2018-08-16T17:31:40.966Z,96279.98
2018-08-16T17:34:08.208Z,96275.08
2018-08-16T17:36:35.465Z,96271.91
2018-08-16T17:39:04.031Z,96273.91
2018-08-16T17:41:31.285Z,96269.81
2018-08-16T17:43:58.643Z,96270.95
2018-08-16T17:46:25.990Z,96275.13
2018-08-16T17:48:54.126Z,96268.62
2018-08-16T17:51:21.428Z,96273.00
2018-08-16T17:53:48.660Z,96271.52
2018-08-16T17:56:15.953Z,96268.84
2018-08-16T17:58:43.327Z,96269.24
2018-08-16T18:01:10.635Z,96271.47
2018-08-16T18:03:37.926Z,96272.45
2018-08-16T18:06:05.318Z,96277.45
2018-08-16T18:08:32.684Z,96271.92
2018-08-16T18:11:00.001Z,96279.45
2018-08-16T18:13:27.309Z,96285.62
2018-08-16T18:15:54.613Z,96282.63
2018-08-16T18:18:21.897Z,96286.59
2018-08-16T18:20:49.277Z,96284.16
2018-08-16T18:23:16.651Z,96280.08
2018-08-16T18:25:44.216Z,96284.44
2018-08-16T18:28:11.627Z,96279.61
2018-08-16T18:30:39.027Z,96285.80
2018-08-16T18:33:06.365Z,96288.91
2018-08-16T18:35:33.647Z,96288.97
2018-08-16T18:38:01.680Z,96289.82
2018-08-16T18:40:28.887Z,96284.03
2018-08-16T18:42:56.197Z,96283.58
2018-08-16T18:45:23.483Z,96288.89
2018-08-16T18:47:50.810Z,96281.83
2018-08-16T18:50:18.075Z,96293.17
2018-08-16T18:52:45.341Z,96296.48
2018-08-16T18:55:12.612Z,96301.69
2018-08-16T18:57:39.879Z,96300.84
2018-08-16T19:00:07.912Z,96301.66
2018-08-16T19:02:35.285Z,96300.14
2018-08-16T19:05:02.664Z,96298.91
2018-08-16T19:07:29.983Z,96307.53
2018-08-16T19:09:57.219Z,96301.94
2018-08-16T19:12:24.561Z,96305.42
2018-08-16T19:14:51.782Z,96309.02
2018-08-16T19:17:19.164Z,96300.24
2018-08-16T19:19:46.506Z,96306.27
2018-08-16T19:22:13.799Z,96312.29
2018-08-16T19:24:41.098Z,96308.08
2018-08-16T19:27:08.496Z,96317.03
2018-08-16T19:29:35.758Z,96317.10
2018-08-16T19:32:03.181Z,96322.61
2018-08-16T19:34:30.509Z,96321.92
2018-08-16T19:36:57.888Z,96325.06
2018-08-16T19:39:25.319Z,96325.84
2018-08-16T19:44:44.909Z,96329.70
2018-08-16T19:47:12.313Z,96328.42
2018-08-16T19:49:39.643Z,96321.56
2018-08-16T19:52:06.955Z,96320.08
2018-08-16T19:54:34.195Z,96324.41
2018-08-16T19:57:01.631Z,96318.42
2018-08-16T19:59:28.923Z,96318.18
2018-08-16T20:01:56.314Z,96321.02
2018-08-16T20:04:23.616Z,96320.53
2018-08-16T20:06:50.861Z,96319.83
2018-08-16T20:09:18.160Z,96320.41
2018-08-16T20:11:45.507Z,96324.95
2018-08-16T20:14:12.855Z,96320.70
2018-08-16T20:16:40.155Z,96324.19
2018-08-16T20:19:20.030Z,96188.34
2018-08-16T20:21:47.651Z,96318.13
2018-08-16T20:24:14.980Z,96319.84
2018-08-16T20:26:42.240Z,96313.75
2018-08-16T20:29:09.625Z,96315.58
2018-08-16T20:31:36.893Z,96316.11
2018-08-16T20:34:04.365Z,96318.75
2018-08-16T20:36:31.633Z,96318.95
2018-08-16T20:38:58.915Z,96320.14
2018-08-16T20:41:26.188Z,96318.22
2018-08-16T20:43:53.631Z,96313.92
2018-08-16T20:46:20.955Z,96317.35
2018-08-16T20:48:48.394Z,96320.08
2018-08-16T20:51:15.742Z,96317.84
2018-08-16T20:53:43.071Z,96320.59
2018-08-16T20:56:10.376Z,96322.37
2018-08-16T20:58:37.703Z,96322.11
2018-08-16T21:01:05.283Z,96319.45
2018-08-16T21:03:32.522Z,96320.81
2018-08-16T21:05:59.850Z,96322.20
2018-08-16T21:08:27.114Z,96314.45
2018-08-16T21:10:54.413Z,96328.09
2018-08-16T21:13:21.672Z,96325.66
2018-08-16T21:15:48.973Z,96324.33
2018-08-16T21:18:16.256Z,96328.11
2018-08-16T21:20:43.603Z,96322.47
2018-08-16T21:23:11.058Z,96325.28
2018-08-16T21:25:38.425Z,96330.84
2018-08-16T21:28:05.915Z,96325.36
2018-08-16T21:30:33.355Z,96331.52
2018-08-16T21:33:03.725Z,96337.17
2018-08-16T21:35:31.079Z,96334.02
2018-08-16T21:37:58.374Z,96330.09
2018-08-16T21:40:25.697Z,96329.51
2018-08-16T21:42:53.046Z,96325.22
2018-08-16T21:45:20.348Z,96327.40
2018-08-16T21:47:47.724Z,96331.69
2018-08-16T21:50:14.981Z,96329.85
2018-08-16T21:52:42.565Z,96325.87
2018-08-16T21:55:09.884Z,96331.34
2018-08-16T21:57:37.245Z,96336.34
2018-08-16T22:00:06.027Z,96329.16
2018-08-16T22:02:33.293Z,96333.84
2018-08-16T22:05:00.596Z,96329.83
2018-08-16T22:08:04.796Z,96329.02
2018-08-16T22:10:32.425Z,96336.33
2018-08-16T22:13:00.070Z,96335.85
2018-08-16T22:15:27.476Z,96306.12
2018-08-16T22:20:47.484Z,96342.36
2018-08-16T22:23:14.717Z,96342.23
2018-08-16T22:25:42.042Z,96343.08
2018-08-16T22:28:09.354Z,96348.89
2018-08-16T22:30:36.763Z,96348.05
2018-08-16T22:33:04.134Z,96348.63
2018-08-16T22:35:31.420Z,96352.92
2018-08-16T22:37:58.780Z,96349.59
2018-08-16T22:40:26.093Z,96351.92
2018-08-16T22:42:53.436Z,96357.56
2018-08-16T22:45:20.794Z,96356.57
2018-08-16T22:47:48.058Z,96357.27
2018-08-16T22:50:15.440Z,96356.77
2018-08-16T22:52:42.777Z,96354.94
2018-08-16T22:55:10.105Z,96352.64
2018-08-16T22:57:37.404Z,96353.79
2018-08-16T23:00:05.885Z,96352.12
2018-08-16T23:02:33.128Z,96349.31
2018-08-16T23:05:00.537Z,96348.32
2018-08-16T23:07:27.766Z,96346.33
2018-08-16T23:09:55.233Z,96346.36
2018-08-16T23:12:22.551Z,96344.37
2018-08-16T23:14:49.836Z,96337.08
2018-08-16T23:17:17.064Z,96341.38
2018-08-16T23:19:44.300Z,96345.02
2018-08-16T23:25:04.409Z,96331.06
2018-08-16T23:27:31.741Z,96339.00
2018-08-16T23:29:59.053Z,96335.35
2018-08-16T23:32:26.472Z,96328.91
2018-08-16T23:34:53.818Z,96333.70
2018-08-16T23:37:21.290Z,96333.05
2018-08-16T23:39:48.568Z,96328.25
2018-08-16T23:42:16.390Z,96322.80
2018-08-16T23:44:43.777Z,96324.80
2018-08-16T23:47:11.097Z,96330.78
2018-08-16T23:49:38.367Z,96324.98
2018-08-16T23:52:05.685Z,96326.81
2018-08-16T23:54:32.890Z,96317.81
2018-08-16T23:59:52.794Z,96318.42
